createdAt,value
2023-04-10T00:04:15.805Z,10.43
2023-04-10T00:09:17.874Z,10.36
2023-04-10T00:14:23.162Z,10.34
2023-04-10T00:19:24.822Z,10.35
2023-04-10T00:24:26.845Z,10.39
2023-04-10T00:29:30.950Z,10.38
2023-04-10T00:34:32.640Z,10.26
2023-04-10T00:39:34.365Z,10.26
2023-04-10T00:44:37.773Z,10.19
2023-04-10T00:49:40.270Z,10.09
2023-04-10T00:54:42.278Z,9.97
2023-04-10T00:59:44.481Z,9.96
2023-04-10T01:04:46.676Z,9.92
2023-04-10T01:09:59.140Z,9.92
2023-04-10T01:15:14.435Z,9.90
2023-04-10T01:20:22.095Z,9.91
2023-04-10T01:25:56.581Z,9.87
2023-04-10T01:31:01.381Z,9.71
2023-04-10T01:36:06.335Z,9.79
2023-04-10T01:41:08.912Z,9.63
2023-04-10T01:46:12.691Z,9.74
2023-04-10T01:51:16.163Z,9.67
2023-04-10T01:56:18.100Z,9.71
2023-04-10T02:01:29.699Z,9.64
2023-04-10T02:06:35.457Z,9.60
2023-04-10T02:11:52.343Z,9.60
2023-04-10T02:16:56.620Z,9.47
2023-04-10T02:21:59.149Z,9.36
2023-04-10T02:27:01.718Z,9.30
2023-04-10T02:32:04.553Z,9.39
2023-04-10T02:37:08.491Z,9.27
2023-04-10T02:42:10.464Z,9.15
2023-04-10T02:47:12.513Z,9.13
2023-04-10T02:52:18.964Z,8.99
2023-04-10T02:57:21.456Z,9.01
2023-04-10T03:02:23.276Z,8.95
2023-04-10T03:07:26.058Z,8.90
2023-04-10T03:12:27.911Z,8.84
2023-04-10T03:17:31.007Z,8.79
2023-04-10T03:22:33.200Z,8.81
2023-04-10T03:27:35.682Z,8.78
2023-04-10T03:32:39.067Z,8.68
2023-04-10T03:37:42.317Z,8.69
2023-04-10T03:42:44.028Z,8.75
2023-04-10T03:47:46.261Z,8.64
2023-04-10T03:52:51.865Z,8.63
2023-04-10T03:57:56.016Z,8.60
2023-04-10T04:03:00.079Z,8.63
2023-04-10T04:08:22.222Z,8.66
2023-04-10T04:13:42.005Z,8.60
2023-04-10T04:18:48.258Z,8.59
2023-04-10T04:24:04.197Z,8.60
2023-04-10T04:29:26.117Z,8.68
2023-04-10T04:34:45.296Z,8.52
2023-04-10T04:40:06.228Z,8.65
2023-04-10T04:45:21.913Z,8.60
2023-04-10T04:50:42.359Z,8.65
2023-04-10T04:56:13.131Z,8.59
2023-04-10T05:01:26.262Z,8.64
2023-04-10T05:06:42.000Z,8.68
2023-04-10T05:11:53.430Z,8.70
2023-04-10T05:17:16.909Z,8.57
2023-04-10T05:22:26.537Z,8.52
2023-04-10T05:27:46.187Z,8.58
2023-04-10T05:33:04.017Z,8.52
2023-04-10T05:38:31.977Z,8.58
2023-04-10T05:43:51.113Z,8.64
2023-04-10T05:49:09.822Z,8.58
2023-04-10T05:54:37.843Z,8.61
2023-04-10T05:59:58.195Z,8.60
2023-04-10T06:05:26.241Z,8.69
2023-04-10T06:10:34.004Z,8.57
2023-04-10T06:15:35.631Z,8.54
2023-04-10T06:20:37.814Z,8.50
2023-04-10T06:25:39.670Z,8.54
2023-04-10T06:30:41.375Z,8.64
2023-04-10T06:35:43.243Z,8.69
2023-04-10T06:40:45.159Z,8.76
2023-04-10T06:45:47.077Z,8.85
2023-04-10T06:50:48.691Z,8.81
2023-04-10T06:55:50.349Z,8.89
2023-04-10T07:00:52.080Z,8.91
2023-04-10T07:05:53.831Z,9.00
2023-04-10T07:10:58.296Z,8.99
2023-04-10T07:16:00.797Z,9.01
2023-04-10T07:21:09.854Z,8.98
2023-04-10T07:26:11.676Z,9.08
2023-04-10T07:31:14.206Z,9.04
2023-04-10T07:36:15.940Z,9.11
2023-04-10T07:41:17.621Z,9.14
2023-04-10T07:46:19.609Z,9.19
2023-04-10T07:51:22.039Z,9.17
2023-04-10T07:56:23.756Z,9.09
2023-04-10T08:01:26.239Z,9.19
2023-04-10T08:06:28.554Z,9.25
2023-04-10T08:11:32.631Z,9.26
2023-04-10T08:16:36.226Z,9.40
2023-04-10T08:21:37.941Z,9.32
2023-04-10T08:26:39.560Z,9.39
2023-04-10T08:31:41.455Z,9.37
2023-04-10T08:36:43.058Z,9.48
2023-04-10T08:41:44.742Z,9.57
2023-04-10T08:46:48.542Z,9.51
2023-04-10T08:51:57.139Z,9.74
2023-04-10T08:57:01.281Z,9.79
2023-04-10T09:02:03.106Z,9.85
2023-04-10T09:07:04.776Z,9.95
2023-04-10T09:12:07.110Z,10.12
2023-04-10T09:17:19.147Z,10.28
2023-04-10T09:22:34.584Z,10.41
2023-04-10T09:27:38.597Z,10.27
2023-04-10T09:32:46.706Z,10.29
2023-04-10T09:37:48.646Z,10.38
2023-04-10T09:42:50.631Z,10.46
2023-04-10T09:48:06.969Z,10.58
2023-04-10T09:53:11.374Z,10.69
2023-04-10T09:58:13.924Z,10.65
2023-04-10T10:03:18.082Z,10.61
2023-04-10T10:08:20.675Z,10.71
2023-04-10T10:13:39.075Z,10.75
2023-04-10T10:19:16.334Z,10.94
2023-04-10T10:24:20.121Z,11.34
2023-04-10T10:29:24.169Z,11.32
2023-04-10T10:34:26.459Z,11.32
2023-04-10T10:39:49.692Z,11.51
2023-04-10T10:44:57.005Z,11.57
2023-04-10T10:50:03.752Z,11.66
2023-04-10T10:55:24.560Z,11.79
2023-04-10T11:00:51.744Z,11.83
2023-04-10T11:05:55.928Z,12.07
2023-04-10T11:11:05.633Z,12.10
2023-04-10T11:16:12.809Z,12.24
2023-04-10T11:21:19.289Z,12.39
2023-04-10T11:26:36.016Z,12.50
2023-04-10T11:31:37.675Z,12.54
2023-04-10T11:36:44.646Z,12.51
2023-04-10T11:41:47.227Z,12.47
2023-04-10T11:46:51.032Z,12.39
2023-04-10T11:51:52.930Z,12.38
2023-04-10T11:57:04.496Z,12.29
2023-04-10T12:02:07.873Z,12.28
2023-04-10T12:07:10.484Z,12.29
2023-04-10T12:12:12.104Z,12.35
2023-04-10T12:17:14.288Z,12.29
2023-04-10T12:22:16.022Z,12.32
2023-04-10T12:27:21.564Z,12.33
2023-04-10T12:32:24.819Z,12.38
2023-04-10T12:37:54.532Z,12.37
2023-04-10T12:42:56.407Z,12.36
2023-04-10T12:47:58.101Z,12.36
2023-04-10T12:53:11.609Z,12.15
2023-04-10T12:58:28.000Z,11.96
2023-04-10T13:03:30.189Z,11.92
2023-04-10T13:08:32.658Z,11.72
2023-04-10T13:13:34.309Z,11.60
2023-04-10T13:18:35.976Z,11.63
2023-04-10T13:23:37.612Z,11.52
2023-04-10T13:28:39.316Z,11.49
2023-04-10T13:33:41.062Z,11.48
2023-04-10T13:38:42.813Z,11.33
2023-04-10T13:43:44.426Z,11.22
2023-04-10T13:48:46.092Z,11.17
2023-04-10T13:53:47.785Z,11.01
2023-04-10T13:58:49.413Z,10.96
2023-04-10T14:03:51.191Z,10.81
2023-04-10T14:08:53.327Z,10.77
2023-04-10T14:13:55.382Z,10.76
2023-04-10T14:18:57.239Z,10.70
2023-04-10T14:23:59.957Z,10.57
2023-04-10T14:29:01.692Z,10.47
2023-04-10T14:34:03.580Z,10.42
2023-04-10T14:39:05.302Z,10.36
2023-04-10T14:44:07.000Z,10.30
2023-04-10T14:49:09.863Z,10.24
2023-04-10T14:54:13.252Z,10.27
2023-04-10T14:59:16.125Z,10.27
2023-04-10T15:04:17.872Z,10.25
2023-04-10T15:09:21.450Z,10.24
2023-04-10T15:14:23.695Z,10.24
2023-04-10T15:19:25.600Z,10.06
2023-04-10T15:24:29.166Z,10.19
2023-04-10T15:29:37.627Z,10.19
2023-04-10T15:34:39.321Z,10.20
2023-04-10T15:39:41.072Z,10.21
2023-04-10T15:44:47.491Z,10.26
2023-04-10T15:49:50.338Z,10.27
2023-04-10T15:54:52.809Z,10.35
2023-04-10T15:59:56.461Z,10.34
2023-04-10T16:04:58.158Z,10.30
2023-04-10T16:09:59.896Z,10.37
2023-04-10T16:15:02.488Z,10.35
2023-04-10T16:20:07.561Z,10.43
2023-04-10T16:25:09.476Z,10.35
2023-04-10T16:30:11.885Z,10.41
2023-04-10T16:35:14.045Z,10.42
2023-04-10T16:40:16.132Z,10.34
2023-04-10T16:45:17.765Z,10.38
2023-04-10T16:50:19.604Z,10.45
2023-04-10T16:55:21.219Z,10.46
2023-04-10T17:00:22.863Z,10.44
2023-04-10T17:05:24.555Z,10.47
2023-04-10T17:10:27.667Z,10.37
2023-04-10T17:15:29.350Z,10.42
2023-04-10T17:20:35.670Z,10.46
2023-04-10T17:25:43.441Z,10.52
2023-04-10T17:30:45.255Z,10.57
2023-04-10T17:35:46.867Z,10.55
2023-04-10T17:40:48.532Z,10.52
2023-04-10T17:45:50.323Z,10.50
2023-04-10T17:50:52.226Z,10.49
2023-04-10T17:55:53.792Z,10.60
2023-04-10T18:00:55.452Z,10.56
2023-04-10T18:05:57.155Z,10.51
2023-04-10T18:10:58.745Z,10.54
2023-04-10T18:16:02.279Z,10.53
2023-04-10T18:21:04.949Z,10.54
2023-04-10T18:26:06.941Z,10.52
2023-04-10T18:31:08.589Z,10.47
2023-04-10T18:36:10.979Z,10.42
2023-04-10T18:41:12.962Z,10.46
2023-04-10T18:46:14.700Z,10.39
2023-04-10T18:51:16.504Z,10.29
2023-04-10T18:56:18.132Z,10.29
2023-04-10T19:01:19.735Z,10.19
2023-04-10T19:06:24.366Z,10.23
2023-04-10T19:11:25.991Z,10.11
2023-04-10T19:16:27.877Z,10.09
2023-04-10T19:21:29.720Z,10.09
2023-04-10T19:26:31.428Z,10.09
2023-04-10T19:31:33.036Z,10.01
2023-04-10T19:36:36.485Z,10.03
2023-04-10T19:41:42.058Z,10.01
2023-04-10T19:46:44.034Z,10.01
2023-04-10T19:51:45.704Z,9.95
2023-04-10T19:56:47.358Z,9.93
2023-04-10T20:01:49.174Z,9.86
2023-04-10T20:06:51.404Z,9.81
2023-04-10T20:11:53.039Z,9.85
2023-04-10T20:16:54.656Z,9.94
2023-04-10T20:21:56.740Z,9.97
2023-04-10T20:26:58.465Z,9.97
2023-04-10T20:32:00.238Z,9.98
2023-04-10T20:37:02.181Z,9.96
2023-04-10T20:42:04.054Z,9.99
2023-04-10T20:47:06.480Z,10.03
2023-04-10T20:52:08.280Z,9.92
2023-04-10T20:57:09.997Z,10.04
2023-04-10T21:02:13.188Z,10.02
2023-04-10T21:07:14.929Z,9.93
2023-04-10T21:12:16.741Z,9.93
2023-04-10T21:17:19.292Z,9.98
2023-04-10T21:22:21.377Z,9.66
2023-04-10T21:27:23.056Z,9.67
2023-04-10T21:32:24.756Z,9.45
2023-04-10T21:37:26.406Z,9.39
2023-04-10T21:42:28.016Z,9.17
2023-04-10T21:47:29.720Z,9.09
2023-04-10T21:52:31.414Z,8.95
2023-04-10T21:57:33.035Z,8.93
2023-04-10T22:02:34.741Z,8.86
2023-04-10T22:07:36.480Z,9.02
2023-04-10T22:12:38.096Z,8.95
2023-04-10T22:17:39.697Z,8.95
2023-04-10T22:22:41.323Z,8.91
2023-04-10T22:27:42.921Z,8.81
2023-04-10T22:32:44.631Z,8.84
2023-04-10T22:37:46.250Z,8.83
2023-04-10T22:42:48.526Z,8.78
2023-04-10T22:47:50.114Z,8.93
2023-04-10T22:52:51.791Z,8.90
2023-04-10T22:57:53.350Z,8.86
2023-04-10T23:02:55.006Z,8.78
2023-04-10T23:07:58.056Z,8.73
2023-04-10T23:12:59.912Z,8.74
2023-04-10T23:18:01.678Z,8.70
2023-04-10T23:23:03.945Z,8.67
2023-04-10T23:28:05.719Z,8.64
2023-04-10T23:33:07.395Z,8.59
2023-04-10T23:38:09.029Z,8.61
2023-04-10T23:43:10.697Z,8.56
2023-04-10T23:48:12.335Z,8.57
2023-04-10T23:53:14.703Z,8.61
2023-04-10T23:58:16.570Z,8.64
